sensor_id;sensor_type;location;lat;lon;timestamp;P1;durP1;ratioP1;P2;durP2;ratioP2
29214;SDS011;16252;49.816;7.964;2023-01-30T00:01:33;22.00;;;11.98;;
29214;SDS011;16252;49.816;7.964;2023-01-30T00:03:59;22.83;;;11.45;;
29214;SDS011;16252;49.816;7.964;2023-01-30T00:06:24;24.08;;;12.55;;
29214;SDS011;16252;49.816;7.964;2023-01-30T00:08:50;22.25;;;11.85;;
29214;SDS011;16252;49.816;7.964;2023-01-30T00:11:16;19.40;;;10.82;;
29214;SDS011;16252;49.816;7.964;2023-01-30T00:13:43;19.88;;;11.07;;
29214;SDS011;16252;49.816;7.964;2023-01-30T00:16:10;20.83;;;11.48;;
29214;SDS011;16252;49.816;7.964;2023-01-30T00:18:37;20.10;;;10.75;;
29214;SDS011;16252;49.816;7.964;2023-01-30T00:21:04;21.08;;;11.55;;
29214;SDS011;16252;49.816;7.964;2023-01-30T00:23:31;20.73;;;11.02;;
29214;SDS011;16252;49.816;7.964;2023-01-30T00:25:57;17.92;;;9.95;;
29214;SDS011;16252;49.816;7.964;2023-01-30T00:28:22;19.85;;;11.38;;
29214;SDS011;16252;49.816;7.964;2023-01-30T00:30:49;20.60;;;10.75;;
29214;SDS011;16252;49.816;7.964;2023-01-30T00:33:18;18.45;;;9.90;;
29214;SDS011;16252;49.816;7.964;2023-01-30T00:35:48;21.52;;;10.57;;
29214;SDS011;16252;49.816;7.964;2023-01-30T00:38:15;23.20;;;11.77;;
29214;SDS011;16252;49.816;7.964;2023-01-30T00:40:41;22.00;;;11.48;;
29214;SDS011;16252;49.816;7.964;2023-01-30T00:43:11;21.95;;;11.45;;
29214;SDS011;16252;49.816;7.964;2023-01-30T00:45:56;23.10;;;12.20;;
29214;SDS011;16252;49.816;7.964;2023-01-30T00:48:41;21.23;;;11.90;;
29214;SDS011;16252;49.816;7.964;2023-01-30T00:51:06;20.05;;;10.90;;
29214;SDS011;16252;49.816;7.964;2023-01-30T00:53:31;19.27;;;10.35;;
29214;SDS011;16252;49.816;7.964;2023-01-30T00:55:57;19.20;;;10.48;;
29214;SDS011;16252;49.816;7.964;2023-01-30T00:58:22;19.73;;;10.48;;
29214;SDS011;16252;49.816;7.964;2023-01-30T01:00:48;20.83;;;10.90;;
29214;SDS011;16252;49.816;7.964;2023-01-30T01:03:14;18.23;;;10.38;;
29214;SDS011;16252;49.816;7.964;2023-01-30T01:05:41;17.83;;;10.15;;
29214;SDS011;16252;49.816;7.964;2023-01-30T01:08:07;20.63;;;10.68;;
29214;SDS011;16252;49.816;7.964;2023-01-30T01:10:33;17.20;;;9.65;;
29214;SDS011;16252;49.816;7.964;2023-01-30T01:12:59;17.73;;;9.45;;
29214;SDS011;16252;49.816;7.964;2023-01-30T01:15:24;19.77;;;10.52;;
29214;SDS011;16252;49.816;7.964;2023-01-30T01:17:50;16.55;;;9.48;;
29214;SDS011;16252;49.816;7.964;2023-01-30T01:20:17;20.25;;;11.73;;
29214;SDS011;16252;49.816;7.964;2023-01-30T01:22:43;21.23;;;10.82;;
29214;SDS011;16252;49.816;7.964;2023-01-30T01:25:08;20.65;;;10.90;;
29214;SDS011;16252;49.816;7.964;2023-01-30T01:27:34;18.80;;;10.50;;
29214;SDS011;16252;49.816;7.964;2023-01-30T01:30:00;16.88;;;9.73;;
29214;SDS011;16252;49.816;7.964;2023-01-30T01:32:25;17.60;;;10.25;;
29214;SDS011;16252;49.816;7.964;2023-01-30T01:34:50;18.23;;;10.15;;
29214;SDS011;16252;49.816;7.964;2023-01-30T01:37:15;21.02;;;10.55;;
29214;SDS011;16252;49.816;7.964;2023-01-30T01:39:41;18.75;;;10.25;;
29214;SDS011;16252;49.816;7.964;2023-01-30T01:42:25;17.90;;;9.80;;
29214;SDS011;16252;49.816;7.964;2023-01-30T01:47:46;18.58;;;10.30;;
29214;SDS011;16252;49.816;7.964;2023-01-30T01:50:20;18.80;;;10.77;;
29214;SDS011;16252;49.816;7.964;2023-01-30T01:52:49;16.80;;;10.07;;
29214;SDS011;16252;49.816;7.964;2023-01-30T01:55:17;18.58;;;9.23;;
29214;SDS011;16252;49.816;7.964;2023-01-30T01:57:45;17.40;;;9.20;;
29214;SDS011;16252;49.816;7.964;2023-01-30T02:00:25;17.35;;;8.95;;
29214;SDS011;16252;49.816;7.964;2023-01-30T02:02:53;19.02;;;9.70;;
29214;SDS011;16252;49.816;7.964;2023-01-30T02:05:22;17.40;;;9.18;;
29214;SDS011;16252;49.816;7.964;2023-01-30T02:07:54;18.05;;;9.25;;
29214;SDS011;16252;49.816;7.964;2023-01-30T02:10:28;19.83;;;10.27;;
29214;SDS011;16252;49.816;7.964;2023-01-30T02:13:00;19.35;;;10.07;;
29214;SDS011;16252;49.816;7.964;2023-01-30T02:15:26;18.85;;;9.73;;
29214;SDS011;16252;49.816;7.964;2023-01-30T02:17:51;20.77;;;10.88;;
29214;SDS011;16252;49.816;7.964;2023-01-30T02:20:38;19.13;;;9.88;;
29214;SDS011;16252;49.816;7.964;2023-01-30T02:26:00;16.88;;;9.43;;
29214;SDS011;16252;49.816;7.964;2023-01-30T02:45:04;23.73;;;12.13;;
29214;SDS011;16252;49.816;7.964;2023-01-30T02:47:51;21.88;;;10.45;;
29214;SDS011;16252;49.816;7.964;2023-01-30T02:50:25;23.00;;;11.55;;
29214;SDS011;16252;49.816;7.964;2023-01-30T02:52:57;23.45;;;13.07;;
29214;SDS011;16252;49.816;7.964;2023-01-30T02:55:23;23.70;;;12.95;;
29214;SDS011;16252;49.816;7.964;2023-01-30T02:57:50;21.60;;;12.38;;
29214;SDS011;16252;49.816;7.964;2023-01-30T03:00:24;22.58;;;12.32;;
29214;SDS011;16252;49.816;7.964;2023-01-30T03:03:13;23.77;;;11.40;;
29214;SDS011;16252;49.816;7.964;2023-01-30T03:06:14;21.15;;;11.93;;
29214;SDS011;16252;49.816;7.964;2023-01-30T03:11:35;23.02;;;12.40;;
29214;SDS011;16252;49.816;7.964;2023-01-30T03:14:14;23.75;;;11.70;;
29214;SDS011;16252;49.816;7.964;2023-01-30T03:16:45;25.52;;;13.27;;
29214;SDS011;16252;49.816;7.964;2023-01-30T03:19:14;25.27;;;13.45;;
29214;SDS011;16252;49.816;7.964;2023-01-30T03:21:43;25.02;;;13.68;;
29214;SDS011;16252;49.816;7.964;2023-01-30T03:24:09;25.83;;;12.25;;
29214;SDS011;16252;49.816;7.964;2023-01-30T03:26:36;22.38;;;11.63;;
29214;SDS011;16252;49.816;7.964;2023-01-30T03:29:13;19.58;;;12.05;;
29214;SDS011;16252;49.816;7.964;2023-01-30T03:31:38;23.83;;;12.60;;
29214;SDS011;16252;49.816;7.964;2023-01-30T03:34:03;24.55;;;12.80;;
29214;SDS011;16252;49.816;7.964;2023-01-30T03:36:29;22.85;;;12.65;;
29214;SDS011;16252;49.816;7.964;2023-01-30T03:38:54;28.52;;;14.35;;
29214;SDS011;16252;49.816;7.964;2023-01-30T03:41:19;23.95;;;12.77;;
29214;SDS011;16252;49.816;7.964;2023-01-30T03:43:44;24.02;;;12.50;;
29214;SDS011;16252;49.816;7.964;2023-01-30T03:46:10;21.58;;;12.27;;
29214;SDS011;16252;49.816;7.964;2023-01-30T03:48:35;24.08;;;11.98;;
29214;SDS011;16252;49.816;7.964;2023-01-30T03:51:00;23.45;;;12.00;;
29214;SDS011;16252;49.816;7.964;2023-01-30T03:53:25;24.83;;;12.82;;
29214;SDS011;16252;49.816;7.964;2023-01-30T03:55:51;23.77;;;12.80;;
29214;SDS011;16252;49.816;7.964;2023-01-30T03:58:16;28.90;;;14.65;;
29214;SDS011;16252;49.816;7.964;2023-01-30T04:00:41;25.13;;;13.75;;
29214;SDS011;16252;49.816;7.964;2023-01-30T04:03:07;23.25;;;12.80;;
29214;SDS011;16252;49.816;7.964;2023-01-30T04:05:32;28.92;;;14.18;;
29214;SDS011;16252;49.816;7.964;2023-01-30T04:07:58;27.23;;;14.52;;
29214;SDS011;16252;49.816;7.964;2023-01-30T04:10:24;23.63;;;13.35;;
29214;SDS011;16252;49.816;7.964;2023-01-30T04:12:50;22.40;;;11.95;;
29214;SDS011;16252;49.816;7.964;2023-01-30T04:15:15;27.20;;;13.23;;
29214;SDS011;16252;49.816;7.964;2023-01-30T04:17:44;23.33;;;12.48;;
29214;SDS011;16252;49.816;7.964;2023-01-30T04:20:11;22.70;;;11.80;;
29214;SDS011;16252;49.816;7.964;2023-01-30T04:22:37;23.70;;;12.88;;
29214;SDS011;16252;49.816;7.964;2023-01-30T04:25:02;21.83;;;12.82;;
29214;SDS011;16252;49.816;7.964;2023-01-30T04:27:27;22.98;;;12.20;;
29214;SDS011;16252;49.816;7.964;2023-01-30T04:29:53;19.65;;;11.18;;
29214;SDS011;16252;49.816;7.964;2023-01-30T04:32:18;23.10;;;11.95;;
29214;SDS011;16252;49.816;7.964;2023-01-30T04:34:43;22.13;;;12.15;;
29214;SDS011;16252;49.816;7.964;2023-01-30T04:37:09;22.27;;;11.68;;
29214;SDS011;16252;49.816;7.964;2023-01-30T04:39:35;20.13;;;11.32;;
29214;SDS011;16252;49.816;7.964;2023-01-30T04:42:00;20.55;;;11.35;;
29214;SDS011;16252;49.816;7.964;2023-01-30T04:44:25;18.23;;;10.25;;
29214;SDS011;16252;49.816;7.964;2023-01-30T04:46:51;19.98;;;10.88;;
29214;SDS011;16252;49.816;7.964;2023-01-30T04:49:16;22.05;;;11.55;;
29214;SDS011;16252;49.816;7.964;2023-01-30T04:51:41;18.55;;;10.88;;
29214;SDS011;16252;49.816;7.964;2023-01-30T04:54:06;20.40;;;11.77;;
29214;SDS011;16252;49.816;7.964;2023-01-30T04:56:32;18.60;;;10.60;;
29214;SDS011;16252;49.816;7.964;2023-01-30T04:58:57;17.70;;;9.95;;
29214;SDS011;16252;49.816;7.964;2023-01-30T05:01:24;17.95;;;10.10;;
29214;SDS011;16252;49.816;7.964;2023-01-30T05:03:53;18.40;;;10.18;;
29214;SDS011;16252;49.816;7.964;2023-01-30T05:06:19;17.40;;;9.50;;
29214;SDS011;16252;49.816;7.964;2023-01-30T05:08:49;17.17;;;10.55;;
29214;SDS011;16252;49.816;7.964;2023-01-30T05:11:16;18.05;;;9.95;;
29214;SDS011;16252;49.816;7.964;2023-01-30T05:13:41;19.70;;;11.15;;
29214;SDS011;16252;49.816;7.964;2023-01-30T05:16:08;19.30;;;10.88;;
29214;SDS011;16252;49.816;7.964;2023-01-30T05:18:33;19.38;;;10.07;;
29214;SDS011;16252;49.816;7.964;2023-01-30T05:21:06;18.73;;;10.55;;
29214;SDS011;16252;49.816;7.964;2023-01-30T05:23:35;16.73;;;10.30;;
29214;SDS011;16252;49.816;7.964;2023-01-30T05:26:00;16.23;;;9.73;;
29214;SDS011;16252;49.816;7.964;2023-01-30T05:28:26;15.25;;;8.80;;
29214;SDS011;16252;49.816;7.964;2023-01-30T05:30:52;15.57;;;9.43;;
29214;SDS011;16252;49.816;7.964;2023-01-30T05:33:18;13.60;;;7.97;;
29214;SDS011;16252;49.816;7.964;2023-01-30T05:35:47;15.65;;;8.93;;
29214;SDS011;16252;49.816;7.964;2023-01-30T05:38:13;11.13;;;6.43;;
29214;SDS011;16252;49.816;7.964;2023-01-30T05:40:38;14.75;;;8.73;;
29214;SDS011;16252;49.816;7.964;2023-01-30T05:43:03;12.07;;;7.75;;
29214;SDS011;16252;49.816;7.964;2023-01-30T05:45:29;13.57;;;8.02;;
29214;SDS011;16252;49.816;7.964;2023-01-30T05:47:54;11.52;;;6.90;;
29214;SDS011;16252;49.816;7.964;2023-01-30T05:50:19;12.63;;;7.15;;
29214;SDS011;16252;49.816;7.964;2023-01-30T05:52:45;12.57;;;7.82;;
29214;SDS011;16252;49.816;7.964;2023-01-30T05:55:10;12.70;;;6.93;;
29214;SDS011;16252;49.816;7.964;2023-01-30T05:57:35;13.05;;;7.68;;
29214;SDS011;16252;49.816;7.964;2023-01-30T06:00:01;11.45;;;7.35;;
29214;SDS011;16252;49.816;7.964;2023-01-30T06:02:26;11.27;;;7.40;;
29214;SDS011;16252;49.816;7.964;2023-01-30T06:04:51;11.00;;;6.95;;
29214;SDS011;16252;49.816;7.964;2023-01-30T06:07:16;12.18;;;7.65;;
29214;SDS011;16252;49.816;7.964;2023-01-30T06:09:42;13.00;;;6.75;;
29214;SDS011;16252;49.816;7.964;2023-01-30T06:12:07;11.75;;;6.65;;
29214;SDS011;16252;49.816;7.964;2023-01-30T06:14:32;13.45;;;7.80;;
29214;SDS011;16252;49.816;7.964;2023-01-30T06:16:58;13.57;;;7.63;;
29214;SDS011;16252;49.816;7.964;2023-01-30T06:19:23;13.38;;;7.75;;
29214;SDS011;16252;49.816;7.964;2023-01-30T06:21:48;13.35;;;8.18;;
29214;SDS011;16252;49.816;7.964;2023-01-30T06:24:13;11.52;;;7.30;;
29214;SDS011;16252;49.816;7.964;2023-01-30T06:26:39;13.27;;;7.80;;
29214;SDS011;16252;49.816;7.964;2023-01-30T06:29:04;12.80;;;7.65;;
29214;SDS011;16252;49.816;7.964;2023-01-30T06:31:29;13.80;;;8.18;;
29214;SDS011;16252;49.816;7.964;2023-01-30T06:33:54;13.15;;;7.50;;
29214;SDS011;16252;49.816;7.964;2023-01-30T06:36:20;12.93;;;7.90;;
29214;SDS011;16252;49.816;7.964;2023-01-30T06:38:45;13.55;;;7.30;;
29214;SDS011;16252;49.816;7.964;2023-01-30T06:41:10;13.63;;;7.95;;
29214;SDS011;16252;49.816;7.964;2023-01-30T06:43:35;14.25;;;8.60;;
29214;SDS011;16252;49.816;7.964;2023-01-30T06:46:01;14.70;;;9.15;;
29214;SDS011;16252;49.816;7.964;2023-01-30T06:48:26;15.80;;;8.00;;
29214;SDS011;16252;49.816;7.964;2023-01-30T06:50:51;14.93;;;8.52;;
29214;SDS011;16252;49.816;7.964;2023-01-30T06:53:17;13.88;;;8.35;;
29214;SDS011;16252;49.816;7.964;2023-01-30T06:55:43;14.52;;;9.05;;
29214;SDS011;16252;49.816;7.964;2023-01-30T06:58:09;11.52;;;7.40;;
29214;SDS011;16252;49.816;7.964;2023-01-30T07:00:36;13.35;;;8.07;;
29214;SDS011;16252;49.816;7.964;2023-01-30T07:03:03;15.05;;;8.52;;
29214;SDS011;16252;49.816;7.964;2023-01-30T07:05:29;17.95;;;9.98;;
29214;SDS011;16252;49.816;7.964;2023-01-30T07:07:54;19.55;;;9.98;;
29214;SDS011;16252;49.816;7.964;2023-01-30T07:10:20;20.60;;;10.20;;
29214;SDS011;16252;49.816;7.964;2023-01-30T07:12:46;17.65;;;10.20;;
29214;SDS011;16252;49.816;7.964;2023-01-30T07:15:11;23.35;;;12.55;;
29214;SDS011;16252;49.816;7.964;2023-01-30T07:17:38;21.02;;;11.23;;
29214;SDS011;16252;49.816;7.964;2023-01-30T07:20:04;20.25;;;10.80;;
29214;SDS011;16252;49.816;7.964;2023-01-30T07:22:30;14.20;;;8.07;;
29214;SDS011;16252;49.816;7.964;2023-01-30T07:24:55;13.32;;;8.00;;
29214;SDS011;16252;49.816;7.964;2023-01-30T07:27:21;12.73;;;7.63;;
29214;SDS011;16252;49.816;7.964;2023-01-30T07:29:46;11.68;;;7.22;;
29214;SDS011;16252;49.816;7.964;2023-01-30T07:32:15;10.68;;;6.90;;
29214;SDS011;16252;49.816;7.964;2023-01-30T07:34:42;10.80;;;7.28;;
29214;SDS011;16252;49.816;7.964;2023-01-30T07:37:07;11.85;;;6.68;;
29214;SDS011;16252;49.816;7.964;2023-01-30T07:39:33;10.75;;;6.80;;
29214;SDS011;16252;49.816;7.964;2023-01-30T07:41:59;12.90;;;8.02;;
29214;SDS011;16252;49.816;7.964;2023-01-30T07:44:25;11.88;;;7.55;;
29214;SDS011;16252;49.816;7.964;2023-01-30T07:46:50;12.50;;;7.72;;
29214;SDS011;16252;49.816;7.964;2023-01-30T07:49:16;12.88;;;7.65;;
29214;SDS011;16252;49.816;7.964;2023-01-30T07:51:41;10.90;;;6.80;;
29214;SDS011;16252;49.816;7.964;2023-01-30T07:54:06;9.82;;;6.07;;
29214;SDS011;16252;49.816;7.964;2023-01-30T07:56:31;8.57;;;6.07;;
29214;SDS011;16252;49.816;7.964;2023-01-30T07:58:57;7.75;;;5.43;;
29214;SDS011;16252;49.816;7.964;2023-01-30T08:01:22;11.13;;;6.13;;
29214;SDS011;16252;49.816;7.964;2023-01-30T08:03:47;9.18;;;5.97;;
29214;SDS011;16252;49.816;7.964;2023-01-30T08:06:13;9.88;;;5.85;;
29214;SDS011;16252;49.816;7.964;2023-01-30T08:08:39;8.68;;;5.28;;
29214;SDS011;16252;49.816;7.964;2023-01-30T08:11:05;7.25;;;4.78;;
29214;SDS011;16252;49.816;7.964;2023-01-30T08:13:30;8.30;;;5.47;;
29214;SDS011;16252;49.816;7.964;2023-01-30T08:16:02;6.65;;;4.63;;
29214;SDS011;16252;49.816;7.964;2023-01-30T08:18:29;7.13;;;4.53;;
29214;SDS011;16252;49.816;7.964;2023-01-30T08:20:59;5.63;;;4.30;;
29214;SDS011;16252;49.816;7.964;2023-01-30T08:23:26;7.03;;;4.28;;
29214;SDS011;16252;49.816;7.964;2023-01-30T08:25:55;6.05;;;4.20;;
29214;SDS011;16252;49.816;7.964;2023-01-30T08:30:47;6.85;;;4.28;;
29214;SDS011;16252;49.816;7.964;2023-01-30T08:33:13;6.05;;;4.07;;
29214;SDS011;16252;49.816;7.964;2023-01-30T08:35:38;5.43;;;3.78;;
29214;SDS011;16252;49.816;7.964;2023-01-30T08:38:07;6.18;;;3.92;;
29214;SDS011;16252;49.816;7.964;2023-01-30T08:40:35;5.82;;;3.90;;
29214;SDS011;16252;49.816;7.964;2023-01-30T08:43:00;6.18;;;3.38;;
29214;SDS011;16252;49.816;7.964;2023-01-30T08:45:26;5.18;;;3.80;;
29214;SDS011;16252;49.816;7.964;2023-01-30T08:47:52;5.65;;;3.35;;
29214;SDS011;16252;49.816;7.964;2023-01-30T08:50:17;4.82;;;3.72;;
29214;SDS011;16252;49.816;7.964;2023-01-30T08:52:43;4.93;;;3.33;;
29214;SDS011;16252;49.816;7.964;2023-01-30T08:55:11;5.25;;;3.88;;
29214;SDS011;16252;49.816;7.964;2023-01-30T08:57:36;5.68;;;3.83;;
29214;SDS011;16252;49.816;7.964;2023-01-30T09:00:02;4.95;;;3.45;;
29214;SDS011;16252;49.816;7.964;2023-01-30T09:02:29;4.32;;;3.50;;
29214;SDS011;16252;49.816;7.964;2023-01-30T09:04:54;5.03;;;3.80;;
29214;SDS011;16252;49.816;7.964;2023-01-30T09:07:19;3.90;;;3.17;;
29214;SDS011;16252;49.816;7.964;2023-01-30T09:09:44;5.45;;;3.60;;
29214;SDS011;16252;49.816;7.964;2023-01-30T09:12:10;4.35;;;3.17;;
29214;SDS011;16252;49.816;7.964;2023-01-30T09:14:35;4.43;;;3.00;;
29214;SDS011;16252;49.816;7.964;2023-01-30T09:17:00;4.38;;;3.20;;
29214;SDS011;16252;49.816;7.964;2023-01-30T09:19:26;4.28;;;2.75;;
29214;SDS011;16252;49.816;7.964;2023-01-30T09:21:52;5.40;;;3.30;;
29214;SDS011;16252;49.816;7.964;2023-01-30T09:24:18;5.30;;;3.10;;
29214;SDS011;16252;49.816;7.964;2023-01-30T09:26:44;5.43;;;3.50;;
29214;SDS011;16252;49.816;7.964;2023-01-30T09:29:10;4.20;;;2.95;;
29214;SDS011;16252;49.816;7.964;2023-01-30T09:31:36;4.60;;;2.88;;
29214;SDS011;16252;49.816;7.964;2023-01-30T09:34:01;4.25;;;2.75;;
29214;SDS011;16252;49.816;7.964;2023-01-30T09:36:27;4.75;;;3.10;;
29214;SDS011;16252;49.816;7.964;2023-01-30T09:38:52;4.85;;;2.90;;
29214;SDS011;16252;49.816;7.964;2023-01-30T09:41:24;3.63;;;2.60;;
29214;SDS011;16252;49.816;7.964;2023-01-30T09:47:09;2.53;;;2.10;;
29214;SDS011;16252;49.816;7.964;2023-01-30T09:54:59;3.75;;;2.15;;
29214;SDS011;16252;49.816;7.964;2023-01-30T09:57:38;4.00;;;2.20;;
29214;SDS011;16252;49.816;7.964;2023-01-30T10:00:11;3.03;;;2.10;;
29214;SDS011;16252;49.816;7.964;2023-01-30T10:06:01;2.00;;;1.80;;
29214;SDS011;16252;49.816;7.964;2023-01-30T10:27:31;2.55;;;2.13;;
29214;SDS011;16252;49.816;7.964;2023-01-30T10:29:58;4.45;;;2.78;;
29214;SDS011;16252;49.816;7.964;2023-01-30T10:32:28;4.95;;;3.25;;
29214;SDS011;16252;49.816;7.964;2023-01-30T10:34:58;4.00;;;3.10;;
29214;SDS011;16252;49.816;7.964;2023-01-30T10:37:41;5.90;;;4.22;;
29214;SDS011;16252;49.816;7.964;2023-01-30T10:40:23;5.80;;;3.50;;
29214;SDS011;16252;49.816;7.964;2023-01-30T10:43:02;4.85;;;2.85;;
29214;SDS011;16252;49.816;7.964;2023-01-30T10:48:51;2.20;;;2.00;;
29214;SDS011;16252;49.816;7.964;2023-01-30T10:51:32;3.15;;;2.47;;
29214;SDS011;16252;49.816;7.964;2023-01-30T10:54:27;3.83;;;2.47;;
29214;SDS011;16252;49.816;7.964;2023-01-30T10:57:13;3.00;;;2.20;;
29214;SDS011;16252;49.816;7.964;2023-01-30T10:59:58;4.70;;;2.83;;
29214;SDS011;16252;49.816;7.964;2023-01-30T11:05:26;3.72;;;2.30;;
29214;SDS011;16252;49.816;7.964;2023-01-30T11:08:03;4.30;;;2.80;;
29214;SDS011;16252;49.816;7.964;2023-01-30T11:10:36;5.38;;;3.00;;
29214;SDS011;16252;49.816;7.964;2023-01-30T11:13:17;2.72;;;1.98;;
29214;SDS011;16252;49.816;7.964;2023-01-30T11:15:46;2.67;;;1.90;;
29214;SDS011;16252;49.816;7.964;2023-01-30T11:18:15;2.72;;;2.20;;
29214;SDS011;16252;49.816;7.964;2023-01-30T11:20:43;3.45;;;2.33;;
29214;SDS011;16252;49.816;7.964;2023-01-30T11:23:29;3.70;;;1.75;;
29214;SDS011;16252;49.816;7.964;2023-01-30T11:25:57;3.30;;;2.28;;
29214;SDS011;16252;49.816;7.964;2023-01-30T11:28:24;4.75;;;2.78;;
29214;SDS011;16252;49.816;7.964;2023-01-30T11:30:55;4.10;;;2.47;;
29214;SDS011;16252;49.816;7.964;2023-01-30T11:33:23;4.60;;;2.47;;
29214;SDS011;16252;49.816;7.964;2023-01-30T11:35:57;1.95;;;1.70;;
29214;SDS011;16252;49.816;7.964;2023-01-30T11:38:26;2.33;;;1.60;;
29214;SDS011;16252;49.816;7.964;2023-01-30T11:41:05;2.22;;;1.80;;
29214;SDS011;16252;49.816;7.964;2023-01-30T11:43:34;2.72;;;1.60;;
29214;SDS011;16252;49.816;7.964;2023-01-30T11:46:03;1.55;;;1.38;;
29214;SDS011;16252;49.816;7.964;2023-01-30T11:48:30;2.72;;;1.42;;
29214;SDS011;16252;49.816;7.964;2023-01-30T11:51:00;1.77;;;1.25;;
29214;SDS011;16252;49.816;7.964;2023-01-30T11:56:08;1.50;;;1.10;;
29214;SDS011;16252;49.816;7.964;2023-01-30T11:58:59;3.30;;;1.30;;
29214;SDS011;16252;49.816;7.964;2023-01-30T12:01:29;1.98;;;1.02;;
29214;SDS011;16252;49.816;7.964;2023-01-30T12:03:57;1.88;;;1.30;;
29214;SDS011;16252;49.816;7.964;2023-01-30T12:06:27;1.40;;;1.30;;
29214;SDS011;16252;49.816;7.964;2023-01-30T12:08:55;1.90;;;1.35;;
29214;SDS011;16252;49.816;7.964;2023-01-30T12:11:25;1.77;;;1.27;;
29214;SDS011;16252;49.816;7.964;2023-01-30T12:13:54;2.38;;;1.48;;
29214;SDS011;16252;49.816;7.964;2023-01-30T12:16:32;1.48;;;1.20;;
29214;SDS011;16252;49.816;7.964;2023-01-30T12:22:00;1.52;;;1.20;;
29214;SDS011;16252;49.816;7.964;2023-01-30T12:27:28;1.00;;;0.95;;
29214;SDS011;16252;49.816;7.964;2023-01-30T12:32:44;2.03;;;1.10;;
29214;SDS011;16252;49.816;7.964;2023-01-30T12:35:13;1.85;;;1.45;;
29214;SDS011;16252;49.816;7.964;2023-01-30T12:43:27;5.18;;;2.70;;
29214;SDS011;16252;49.816;7.964;2023-01-30T12:49:02;2.85;;;2.00;;
29214;SDS011;16252;49.816;7.964;2023-01-30T12:51:39;2.50;;;1.80;;
29214;SDS011;16252;49.816;7.964;2023-01-30T13:00:04;1.58;;;1.48;;
29214;SDS011;16252;49.816;7.964;2023-01-30T13:16:56;2.40;;;2.00;;
29214;SDS011;16252;49.816;7.964;2023-01-30T13:22:14;3.70;;;1.98;;
29214;SDS011;16252;49.816;7.964;2023-01-30T13:27:41;3.05;;;2.20;;
29214;SDS011;16252;49.816;7.964;2023-01-30T13:30:13;7.05;;;2.50;;
29214;SDS011;16252;49.816;7.964;2023-01-30T13:32:42;3.22;;;2.22;;
29214;SDS011;16252;49.816;7.964;2023-01-30T13:35:33;3.45;;;1.92;;
29214;SDS011;16252;49.816;7.964;2023-01-30T13:38:02;3.20;;;2.10;;
29214;SDS011;16252;49.816;7.964;2023-01-30T13:40:31;3.47;;;2.10;;
29214;SDS011;16252;49.816;7.964;2023-01-30T13:45:49;4.38;;;2.10;;
29214;SDS011;16252;49.816;7.964;2023-01-30T13:53:18;2.30;;;1.90;;
29214;SDS011;16252;49.816;7.964;2023-01-30T14:04:41;3.22;;;1.85;;
29214;SDS011;16252;49.816;7.964;2023-01-30T14:17:58;3.53;;;2.40;;
29214;SDS011;16252;49.816;7.964;2023-01-30T14:20:43;3.95;;;2.40;;
29214;SDS011;16252;49.816;7.964;2023-01-30T14:23:18;3.67;;;2.00;;
29214;SDS011;16252;49.816;7.964;2023-01-30T14:25:45;3.63;;;2.20;;
29214;SDS011;16252;49.816;7.964;2023-01-30T14:35:44;4.18;;;2.22;;
29214;SDS011;16252;49.816;7.964;2023-01-30T14:51:10;2.70;;;1.88;;
29214;SDS011;16252;49.816;7.964;2023-01-30T14:53:46;4.30;;;1.73;;
29214;SDS011;16252;49.816;7.964;2023-01-30T14:56:18;4.10;;;1.92;;
29214;SDS011;16252;49.816;7.964;2023-01-30T14:58:59;2.35;;;1.50;;
29214;SDS011;16252;49.816;7.964;2023-01-30T15:04:22;2.78;;;2.17;;
29214;SDS011;16252;49.816;7.964;2023-01-30T15:06:50;4.90;;;1.70;;
29214;SDS011;16252;49.816;7.964;2023-01-30T15:09:19;5.63;;;2.65;;
29214;SDS011;16252;49.816;7.964;2023-01-30T15:11:48;5.75;;;2.92;;
29214;SDS011;16252;49.816;7.964;2023-01-30T15:14:26;5.95;;;3.00;;
29214;SDS011;16252;49.816;7.964;2023-01-30T15:16:56;4.63;;;2.33;;
29214;SDS011;16252;49.816;7.964;2023-01-30T15:27:49;4.53;;;2.20;;
29214;SDS011;16252;49.816;7.964;2023-01-30T15:30:20;3.67;;;1.80;;
29214;SDS011;16252;49.816;7.964;2023-01-30T15:33:06;4.05;;;1.73;;
29214;SDS011;16252;49.816;7.964;2023-01-30T15:35:38;4.15;;;1.52;;
29214;SDS011;16252;49.816;7.964;2023-01-30T15:38:03;4.03;;;1.88;;
29214;SDS011;16252;49.816;7.964;2023-01-30T15:40:29;3.58;;;1.75;;
29214;SDS011;16252;49.816;7.964;2023-01-30T15:51:43;3.95;;;1.95;;
29214;SDS011;16252;49.816;7.964;2023-01-30T15:54:09;4.57;;;2.20;;
29214;SDS011;16252;49.816;7.964;2023-01-30T15:56:41;4.78;;;1.60;;
29214;SDS011;16252;49.816;7.964;2023-01-30T15:59:52;5.47;;;1.98;;
29214;SDS011;16252;49.816;7.964;2023-01-30T16:02:05;6.30;;;2.88;;
29214;SDS011;16252;49.816;7.964;2023-01-30T16:04:37;8.35;;;2.90;;
29214;SDS011;16252;49.816;7.964;2023-01-30T16:07:22;7.97;;;2.97;;
29214;SDS011;16252;49.816;7.964;2023-01-30T16:09:52;10.73;;;3.42;;
29214;SDS011;16252;49.816;7.964;2023-01-30T16:12:22;6.63;;;3.65;;
29214;SDS011;16252;49.816;7.964;2023-01-30T16:14:49;5.78;;;2.83;;
29214;SDS011;16252;49.816;7.964;2023-01-30T16:17:14;5.88;;;2.10;;
29214;SDS011;16252;49.816;7.964;2023-01-30T16:19:43;8.07;;;2.45;;
29214;SDS011;16252;49.816;7.964;2023-01-30T16:22:15;6.88;;;2.55;;
29214;SDS011;16252;49.816;7.964;2023-01-30T16:24:44;6.18;;;2.38;;
29214;SDS011;16252;49.816;7.964;2023-01-30T16:27:32;7.55;;;2.47;;
29214;SDS011;16252;49.816;7.964;2023-01-30T16:30:00;6.40;;;1.90;;
29214;SDS011;16252;49.816;7.964;2023-01-30T16:32:29;5.57;;;1.95;;
29214;SDS011;16252;49.816;7.964;2023-01-30T16:35:16;12.82;;;2.30;;
29214;SDS011;16252;49.816;7.964;2023-01-30T16:37:55;4.32;;;1.80;;
29214;SDS011;16252;49.816;7.964;2023-01-30T16:40:23;4.10;;;1.60;;
29214;SDS011;16252;49.816;7.964;2023-01-30T16:50:43;7.80;;;1.77;;
29214;SDS011;16252;49.816;7.964;2023-01-30T16:53:13;5.25;;;1.75;;
29214;SDS011;16252;49.816;7.964;2023-01-30T16:55:52;7.25;;;1.80;;
29214;SDS011;16252;49.816;7.964;2023-01-30T16:58:22;7.28;;;1.80;;
29214;SDS011;16252;49.816;7.964;2023-01-30T17:00:51;7.03;;;2.00;;
29214;SDS011;16252;49.816;7.964;2023-01-30T17:03:27;5.05;;;1.92;;
29214;SDS011;16252;49.816;7.964;2023-01-30T17:05:58;6.38;;;1.73;;
29214;SDS011;16252;49.816;7.964;2023-01-30T17:11:26;8.50;;;2.53;;
29214;SDS011;16252;49.816;7.964;2023-01-30T17:16:40;7.03;;;2.50;;
29214;SDS011;16252;49.816;7.964;2023-01-30T17:19:07;6.05;;;2.92;;
29214;SDS011;16252;49.816;7.964;2023-01-30T17:21:36;13.93;;;5.38;;
29214;SDS011;16252;49.816;7.964;2023-01-30T17:24:12;9.23;;;4.05;;
29214;SDS011;16252;49.816;7.964;2023-01-30T17:26:40;14.68;;;4.63;;
29214;SDS011;16252;49.816;7.964;2023-01-30T17:29:06;8.55;;;3.28;;
29214;SDS011;16252;49.816;7.964;2023-01-30T17:31:31;5.90;;;3.00;;
29214;SDS011;16252;49.816;7.964;2023-01-30T17:33:57;8.40;;;2.83;;
29214;SDS011;16252;49.816;7.964;2023-01-30T17:36:24;9.18;;;2.97;;
29214;SDS011;16252;49.816;7.964;2023-01-30T17:38:51;4.30;;;2.15;;
29214;SDS011;16252;49.816;7.964;2023-01-30T17:41:19;7.25;;;2.20;;
29214;SDS011;16252;49.816;7.964;2023-01-30T17:43:54;4.20;;;2.13;;
29214;SDS011;16252;49.816;7.964;2023-01-30T17:46:21;6.88;;;2.20;;
29214;SDS011;16252;49.816;7.964;2023-01-30T17:48:55;6.72;;;2.85;;
29214;SDS011;16252;49.816;7.964;2023-01-30T17:51:20;7.40;;;2.05;;
29214;SDS011;16252;49.816;7.964;2023-01-30T17:53:45;7.88;;;2.65;;
29214;SDS011;16252;49.816;7.964;2023-01-30T17:56:22;7.50;;;2.30;;
29214;SDS011;16252;49.816;7.964;2023-01-30T17:58:54;7.93;;;3.00;;